Time;durP1;ratioP1;P1;durP2;ratioP2;P2;SDS_P1;SDS_P2;PMS_P1;PMS_P2;Temp;Humidity;BMP_temperature;BMP_pressure;BME280_temperature;BME280_humidity;BME280_pressure;Samples;Min_cycle;Max_cycle;Signal;HPM_P1;HPM_P2
2023/10/06 00:01:21;;;;;;;18.67;5.27;;;8.10;61.40;;;;;;5053657;28;20416;-69
2023/10/06 00:03:48;;;;;;;8.07;5.20;;;8.00;60.40;;;;;;5052063;28;20406;-70
2023/10/06 00:06:22;;;;;;;8.20;5.37;;;7.90;61.30;;;;;;5053140;28;20427;-69
2023/10/06 00:08:51;;;;;;;9.17;5.20;;;7.90;62.80;;;;;;5053637;28;20405;-69
2023/10/06 00:11:31;;;;;;;7.00;5.83;;;7.90;61.50;;;;;;5052917;28;20418;-68
2023/10/06 00:14:19;;;;;;;9.53;4.67;;;7.90;61.30;;;;;;5054883;28;20848;-70
2023/10/06 00:16:45;;;;;;;7.87;5.57;;;7.90;62.10;;;;;;5053401;28;20462;-71
2023/10/06 00:19:31;;;;;;;10.23;5.63;;;7.90;61.00;;;;;;5053113;28;20409;-71
2023/10/06 00:24:37;;;;;;;9.87;7.00;;;7.90;62.10;;;;;;5052827;28;20425;-70
2023/10/06 00:27:03;;;;;;;12.00;5.10;;;7.90;62.10;;;;;;5053006;28;20452;-70
2023/10/06 00:29:29;;;;;;;15.80;7.30;;;7.80;62.00;;;;;;5051533;28;20937;-71
2023/10/06 00:32:21;;;;;;;8.77;6.53;;;7.70;62.40;;;;;;5052852;28;21078;-70
2023/10/06 00:34:48;;;;;;;8.50;6.93;;;7.70;62.40;;;;;;5051092;28;20689;-71
2023/10/06 00:37:15;;;;;;;10.00;7.17;;;7.60;64.20;;;;;;5053095;28;20483;-71
2023/10/06 00:39:42;;;;;;;13.00;7.20;;;7.60;64.60;;;;;;5053567;28;20457;-69
2023/10/06 00:42:08;;;;;;;7.63;6.40;;;7.60;64.80;;;;;;5052879;28;20971;-69
2023/10/06 00:44:35;;;;;;;11.33;7.80;;;7.60;64.40;;;;;;5052863;28;20438;-70
2023/10/06 00:47:05;;;;;;;10.13;8.37;;;7.50;64.70;;;;;;5051820;28;20200;-69
2023/10/06 00:49:33;;;;;;;14.70;8.10;;;7.50;64.20;;;;;;5052414;28;20790;-69
2023/10/06 00:52:06;;;;;;;12.47;9.87;;;7.50;64.70;;;;;;5052793;28;20879;-69
2023/10/06 00:54:32;;;;;;;12.50;9.93;;;7.50;64.00;;;;;;5052746;28;20962;-70
2023/10/06 00:56:59;;;;;;;11.50;8.87;;;7.50;63.30;;;;;;5052992;28;20505;-70
2023/10/06 00:59:26;;;;;;;18.00;10.50;;;7.50;64.30;;;;;;5053012;28;20416;-69
2023/10/06 01:01:52;;;;;;;12.00;9.50;;;7.50;63.80;;;;;;5053482;28;20417;-69
2023/10/06 01:04:24;;;;;;;13.13;10.50;;;7.50;64.50;;;;;;5055294;28;20801;-69
2023/10/06 01:06:54;;;;;;;19.17;9.67;;;7.50;63.40;;;;;;5052425;28;20449;-69
2023/10/06 01:09:30;;;;;;;15.20;8.73;;;7.40;64.30;;;;;;5055052;28;20777;-69
2023/10/06 01:11:58;;;;;;;14.63;8.70;;;7.40;64.90;;;;;;5055146;28;20551;-70
2023/10/06 01:14:27;;;;;;;10.00;7.50;;;7.40;64.40;;;;;;5054557;28;20764;-70
2023/10/06 01:17:14;;;;;;;11.20;8.80;;;7.40;65.60;;;;;;5055465;28;20507;-69
2023/10/06 01:19:47;;;;;;;11.20;8.77;;;7.30;63.80;;;;;;5055311;28;20401;-70
2023/10/06 01:22:24;;;;;;;10.80;8.47;;;7.30;63.70;;;;;;5053548;28;20520;-70
2023/10/06 01:24:51;;;;;;;10.97;8.00;;;7.20;64.00;;;;;;5054406;28;20428;-70
2023/10/06 01:27:16;;;;;;;11.40;7.80;;;7.20;64.80;;;;;;5054561;28;20501;-70
2023/10/06 01:29:42;;;;;;;14.50;8.63;;;7.20;64.50;;;;;;5054783;28;20465;-70
2023/10/06 01:32:08;;;;;;;15.03;6.87;;;7.20;64.50;;;;;;5054771;28;20194;-69
2023/10/06 01:34:38;;;;;;;7.67;6.30;;;7.20;63.50;;;;;;5054802;28;20235;-69
2023/10/06 01:37:11;;;;;;;8.93;7.40;;;7.10;64.00;;;;;;5054645;28;20474;-69
2023/10/06 01:39:37;;;;;;;7.87;6.00;;;7.10;64.50;;;;;;5054312;28;20563;-70
2023/10/06 01:42:07;;;;;;;9.40;5.53;;;7.00;64.60;;;;;;5054753;28;20849;-69
2023/10/06 01:44:34;;;;;;;9.97;5.77;;;7.00;64.60;;;;;;5053218;28;20440;-70
2023/10/06 01:47:01;;;;;;;12.37;6.17;;;7.00;65.10;;;;;;5052907;28;20506;-69
2023/10/06 01:49:27;;;;;;;15.47;5.90;;;7.00;66.20;;;;;;5051269;28;20451;-70
2023/10/06 01:51:53;;;;;;;11.80;5.80;;;7.00;64.60;;;;;;5052663;28;20491;-70
2023/10/06 01:54:25;;;;;;;6.80;4.57;;;7.00;66.00;;;;;;5051253;28;20891;-70
2023/10/06 01:56:53;;;;;;;14.93;5.00;;;7.00;64.80;;;;;;5051319;28;20570;-70
2023/10/06 01:59:19;;;;;;;9.40;4.80;;;7.00;64.10;;;;;;5054346;28;20413;-70
2023/10/06 02:01:45;;;;;;;9.73;6.20;;;6.90;65.10;;;;;;5056146;28;20419;-70
2023/10/06 02:04:14;;;;;;;5.93;4.60;;;6.90;65.00;;;;;;5055656;28;20417;-70
2023/10/06 02:06:45;;;;;;;7.47;5.80;;;6.80;65.30;;;;;;5056564;28;20825;-70
2023/10/06 02:09:15;;;;;;;7.90;5.30;;;6.80;66.50;;;;;;5056601;28;20408;-72
2023/10/06 02:11:44;;;;;;;8.17;4.33;;;6.80;66.00;;;;;;5055173;28;20457;-71
2023/10/06 02:14:12;;;;;;;8.90;4.40;;;6.80;66.40;;;;;;5055208;28;20463;-72
2023/10/06 02:16:38;;;;;;;6.70;5.07;;;6.70;67.00;;;;;;5053780;28;20474;-71
2023/10/06 02:19:15;;;;;;;7.27;5.40;;;6.70;66.90;;;;;;5055176;28;20547;-72
2023/10/06 02:21:42;;;;;;;8.23;4.67;;;6.70;69.30;;;;;;5054086;28;20277;-73
2023/10/06 02:24:08;;;;;;;10.10;5.17;;;6.80;68.90;;;;;;5053810;28;20477;-70
2023/10/06 02:26:37;;;;;;;7.87;5.07;;;6.80;68.00;;;;;;5054928;28;20437;-71
2023/10/06 02:29:11;;;;;;;7.03;4.80;;;6.80;67.70;;;;;;5054968;28;20900;-72
2023/10/06 02:31:37;;;;;;;6.77;5.63;;;6.70;66.60;;;;;;5054923;28;20465;-72
2023/10/06 02:34:04;;;;;;;10.37;5.60;;;6.70;68.10;;;;;;5054783;28;20425;-72
2023/10/06 02:36:31;;;;;;;8.30;4.77;;;6.70;67.30;;;;;;5054617;28;20433;-72
2023/10/06 02:38:56;;;;;;;10.17;5.70;;;6.70;67.90;;;;;;5054978;28;20413;-71
2023/10/06 02:41:26;;;;;;;7.00;4.60;;;6.70;66.80;;;;;;5054732;28;20432;-72
2023/10/06 02:43:53;;;;;;;6.47;4.60;;;6.70;67.30;;;;;;5055787;28;20296;-71
2023/10/06 02:46:25;;;;;;;10.33;5.40;;;6.70;66.10;;;;;;5055841;28;20947;-71
2023/10/06 02:48:51;;;;;;;11.83;5.60;;;6.60;66.90;;;;;;5056560;28;20755;-71
2023/10/06 02:51:32;;;;;;;8.50;5.27;;;6.60;67.90;;;;;;5056307;28;20413;-71
2023/10/06 02:56:40;;;;;;;6.83;4.77;;;6.60;67.80;;;;;;5056791;28;20441;-70
2023/10/06 02:59:20;;;;;;;11.57;4.70;;;6.60;67.60;;;;;;5055818;28;20445;-69
2023/10/06 03:01:52;;;;;;;8.40;5.47;;;6.60;66.20;;;;;;5056764;28;20420;-71
2023/10/06 03:04:21;;;;;;;8.40;5.40;;;6.50;67.70;;;;;;5054305;28;20424;-71
2023/10/06 03:06:53;;;;;;;7.60;5.50;;;6.50;67.20;;;;;;5056562;28;20444;-70
2023/10/06 03:09:19;;;;;;;9.23;5.47;;;6.50;66.90;;;;;;5057596;28;20413;-71
2023/10/06 03:11:49;;;;;;;8.73;5.90;;;6.50;66.60;;;;;;5056361;28;20459;-71
2023/10/06 03:14:24;;;;;;;9.93;6.00;;;6.50;67.20;;;;;;5059032;28;20412;-69
2023/10/06 03:16:51;;;;;;;6.43;5.00;;;6.40;67.00;;;;;;5055378;28;20942;-71
2023/10/06 03:19:19;;;;;;;5.90;5.23;;;6.30;67.40;;;;;;5056217;28;20453;-71
2023/10/06 03:21:45;;;;;;;7.27;4.97;;;6.30;68.90;;;;;;5054920;28;20424;-70
2023/10/06 03:24:19;;;;;;;9.17;6.43;;;6.30;69.80;;;;;;5056333;28;20420;-71
2023/10/06 03:26:46;;;;;;;8.07;5.70;;;6.40;69.00;;;;;;5055925;28;20461;-70
2023/10/06 03:29:24;;;;;;;9.57;6.30;;;6.30;68.90;;;;;;5057195;28;20939;-69
2023/10/06 03:31:50;;;;;;;18.03;7.50;;;6.30;69.70;;;;;;5059970;28;20453;-71
2023/10/06 03:34:16;;;;;;;12.40;8.10;;;6.30;70.00;;;;;;5055823;28;20479;-70
2023/10/06 03:36:51;;;;;;;12.40;7.90;;;6.20;71.10;;;;;;5055275;28;20213;-70
2023/10/06 03:39:27;;;;;;;8.60;6.53;;;6.20;71.10;;;;;;5056100;28;20409;-70
2023/10/06 03:41:55;;;;;;;10.87;6.87;;;6.30;73.40;;;;;;5058497;28;20445;-71
2023/10/06 03:44:29;;;;;;;9.30;6.73;;;6.40;72.80;;;;;;5058415;28;20420;-71
2023/10/06 03:47:07;;;;;;;13.27;6.50;;;6.40;71.80;;;;;;5056325;28;20916;-71
2023/10/06 03:49:33;;;;;;;10.20;7.87;;;6.40;73.10;;;;;;5057327;28;20420;-71
2023/10/06 03:51:59;;;;;;;14.70;7.00;;;6.40;73.00;;;;;;5056412;28;20813;-71
2023/10/06 03:54:24;;;;;;;11.67;7.50;;;6.40;71.60;;;;;;5057478;28;20401;-70
2023/10/06 03:56:50;;;;;;;14.63;7.27;;;6.40;71.70;;;;;;5055594;28;20202;-69
2023/10/06 03:59:16;;;;;;;11.43;6.87;;;6.30;72.40;;;;;;5061814;28;20198;-70
2023/10/06 04:01:44;;;;;;;9.57;6.20;;;6.30;71.40;;;;;;5063210;28;20199;-70
2023/10/06 04:04:22;;;;;;;15.17;7.70;;;6.30;73.00;;;;;;5058170;28;20463;-70
2023/10/06 04:06:48;;;;;;;7.90;6.00;;;6.30;72.10;;;;;;5057153;28;20463;-70
2023/10/06 04:09:19;;;;;;;9.30;7.30;;;6.40;72.30;;;;;;5055056;28;20416;-70
2023/10/06 04:11:47;;;;;;;12.00;7.67;;;6.40;71.40;;;;;;5055289;28;20471;-70
2023/10/06 04:14:15;;;;;;;10.13;6.43;;;6.40;70.70;;;;;;5057191;28;20412;-70
2023/10/06 04:16:45;;;;;;;9.00;7.20;;;6.30;71.80;;;;;;5055543;28;20452;-70
2023/10/06 04:19:15;;;;;;;11.10;6.63;;;6.30;71.60;;;;;;5055677;28;20930;-70
2023/10/06 04:21:42;;;;;;;7.07;5.50;;;6.30;70.80;;;;;;5056880;28;20425;-70
2023/10/06 04:24:08;;;;;;;11.60;7.57;;;6.30;71.70;;;;;;5058436;28;20421;-69
2023/10/06 04:26:33;;;;;;;9.43;6.30;;;6.40;70.60;;;;;;5056803;28;20490;-69
2023/10/06 04:28:59;;;;;;;10.30;7.20;;;6.30;70.00;;;;;;5058575;28;20421;-69
2023/10/06 04:31:25;;;;;;;10.90;6.93;;;6.20;69.90;;;;;;5057297;28;20189;-69
2023/10/06 04:33:50;;;;;;;10.70;6.90;;;6.20;70.70;;;;;;5059710;28;20726;-68
2023/10/06 04:36:20;;;;;;;10.13;6.63;;;6.20;70.80;;;;;;5060252;28;20198;-70
2023/10/06 04:38:46;;;;;;;11.07;6.17;;;6.20;71.50;;;;;;5061891;28;20171;-71
2023/10/06 04:41:14;;;;;;;11.53;5.60;;;6.20;71.00;;;;;;5062207;28;20413;-69
2023/10/06 04:43:44;;;;;;;11.27;7.47;;;6.20;70.90;;;;;;5062520;28;21004;-70
2023/10/06 04:46:10;;;;;;;10.53;6.73;;;6.20;70.10;;;;;;5060583;28;20452;-70
2023/10/06 04:48:36;;;;;;;7.70;6.10;;;6.10;70.60;;;;;;5060479;28;20463;-70
2023/10/06 04:51:05;;;;;;;10.67;7.10;;;6.20;70.90;;;;;;5059517;28;20951;-70
2023/10/06 04:53:38;;;;;;;8.10;6.73;;;6.20;70.70;;;;;;5061049;28;20209;-70
2023/10/06 04:56:08;;;;;;;10.23;7.53;;;6.10;70.60;;;;;;5060165;28;20433;-70
2023/10/06 04:58:38;;;;;;;12.00;6.03;;;6.10;70.80;;;;;;5059756;28;20538;-70
2023/10/06 05:01:04;;;;;;;13.20;7.37;;;6.00;70.30;;;;;;5059565;28;20433;-70
2023/10/06 05:03:50;;;;;;;10.23;6.97;;;6.00;71.30;;;;;;5060511;28;20499;-71
2023/10/06 05:06:16;;;;;;;10.63;8.20;;;6.10;72.10;;;;;;5059903;28;20301;-70
2023/10/06 05:08:44;;;;;;;9.43;6.90;;;6.10;68.90;;;;;;5060065;28;20417;-70
2023/10/06 05:11:12;;;;;;;13.10;7.97;;;6.00;70.00;;;;;;5059233;28;20506;-70
2023/10/06 05:13:37;;;;;;;10.60;8.53;;;6.00;70.30;;;;;;5056504;28;20464;-70
2023/10/06 05:16:03;;;;;;;11.20;8.10;;;6.00;70.60;;;;;;5057157;28;20453;-70
2023/10/06 05:18:29;;;;;;;8.47;7.13;;;6.00;69.50;;;;;;5058853;28;20181;-71
2023/10/06 05:20:55;;;;;;;12.90;8.07;;;6.00;70.00;;;;;;5056043;28;21022;-71
2023/10/06 05:23:20;;;;;;;8.40;6.90;;;6.00;70.60;;;;;;5054513;28;20224;-70
2023/10/06 05:25:46;;;;;;;9.23;8.20;;;6.00;72.20;;;;;;5053511;28;20206;-70
2023/10/06 05:28:16;;;;;;;10.10;6.97;;;6.00;71.30;;;;;;5054097;28;20669;-71
2023/10/06 05:30:43;;;;;;;12.73;7.57;;;6.00;73.20;;;;;;5053548;28;20175;-69
2023/10/06 05:33:09;;;;;;;9.47;7.53;;;6.10;73.40;;;;;;5052676;28;20464;-70
2023/10/06 05:35:40;;;;;;;10.67;7.40;;;6.20;72.70;;;;;;5053622;28;20432;-70
2023/10/06 05:38:15;;;;;;;9.53;6.90;;;6.20;70.80;;;;;;5052384;28;20405;-69
2023/10/06 05:40:42;;;;;;;11.13;7.60;;;6.20;72.00;;;;;;5052017;28;20408;-68
2023/10/06 05:43:16;;;;;;;10.13;7.23;;;6.30;72.50;;;;;;5051525;28;20413;-69
2023/10/06 05:45:42;;;;;;;11.63;7.10;;;6.30;71.10;;;;;;5051742;28;20849;-70
2023/10/06 05:48:16;;;;;;;10.10;7.90;;;6.30;71.40;;;;;;5050399;28;20429;-69
2023/10/06 05:50:42;;;;;;;12.43;7.50;;;6.30;71.50;;;;;;5051966;28;20421;-70
2023/10/06 05:53:12;;;;;;;14.00;8.30;;;6.40;71.50;;;;;;5051591;28;20464;-70
2023/10/06 05:55:39;;;;;;;19.93;9.17;;;6.40;71.20;;;;;;5050041;28;20967;-69
2023/10/06 05:58:23;;;;;;;17.77;9.63;;;6.50;72.20;;;;;;5051400;28;20405;-69
2023/10/06 06:01:05;;;;;;;11.83;8.10;;;6.60;72.00;;;;;;5051491;28;20413;-69
2023/10/06 06:03:31;;;;;;;12.53;7.90;;;6.60;72.30;;;;;;5051288;28;20829;-68
2023/10/06 06:06:02;;;;;;;13.40;7.73;;;6.60;72.40;;;;;;5050967;28;20437;-69
2023/10/06 06:08:30;;;;;;;9.90;7.33;;;6.70;71.60;;;;;;5051281;28;20889;-69
2023/10/06 06:10:56;;;;;;;10.33;8.20;;;6.80;69.70;;;;;;5050049;28;20433;-69
2023/10/06 06:13:21;;;;;;;13.23;8.10;;;6.90;69.90;;;;;;5051266;28;20556;-68
2023/10/06 06:15:48;;;;;;;12.17;8.07;;;6.90;69.20;;;;;;5049998;28;20995;-69
2023/10/06 06:18:14;;;;;;;16.73;9.47;;;7.00;71.10;;;;;;5050331;28;20203;-69
2023/10/06 06:20:42;;;;;;;11.20;8.33;;;7.00;71.30;;;;;;5051297;28;20452;-69
2023/10/06 06:23:12;;;;;;;9.50;7.20;;;7.10;72.20;;;;;;5051353;28;20228;-69
2023/10/06 06:25:38;;;;;;;16.73;9.53;;;7.20;71.00;;;;;;5051142;28;20469;-69
2023/10/06 06:28:05;;;;;;;9.33;6.90;;;7.30;69.80;;;;;;5050042;28;20424;-68
2023/10/06 06:30:34;;;;;;;15.60;8.33;;;7.40;70.40;;;;;;5057496;28;20498;-70
2023/10/06 06:33:01;;;;;;;15.47;8.60;;;7.50;70.00;;;;;;5059629;28;20489;-70
2023/10/06 06:35:29;;;;;;;12.50;8.70;;;7.60;68.60;;;;;;5059775;28;20440;-69
2023/10/06 06:38:04;;;;;;;11.33;9.10;;;7.70;67.70;;;;;;5060047;28;20743;-70
2023/10/06 06:40:37;;;;;;;11.73;6.87;;;7.80;66.70;;;;;;5060474;28;20406;-69
2023/10/06 06:43:05;;;;;;;11.17;8.33;;;7.90;67.70;;;;;;5059775;28;20414;-68
2023/10/06 06:45:36;;;;;;;17.00;7.37;;;7.90;66.60;;;;;;5061427;28;20438;-69
2023/10/06 06:48:03;;;;;;;12.23;8.60;;;8.00;64.50;;;;;;5064054;28;20442;-69
2023/10/06 06:50:31;;;;;;;12.37;8.30;;;8.10;64.40;;;;;;5064381;28;20427;-69
2023/10/06 06:52:57;;;;;;;12.07;7.90;;;8.10;63.60;;;;;;5064774;28;20474;-68
2023/10/06 06:55:23;;;;;;;7.97;6.10;;;8.10;60.40;;;;;;5064738;28;20447;-69
2023/10/06 06:57:50;;;;;;;10.07;6.17;;;8.20;62.60;;;;;;5066275;28;20421;-69
2023/10/06 07:00:18;;;;;;;19.57;9.00;;;8.30;62.30;;;;;;5063136;28;20175;-69
2023/10/06 07:02:44;;;;;;;9.20;7.20;;;8.40;61.00;;;;;;5043940;28;20474;-68
2023/10/06 07:05:11;;;;;;;10.50;7.70;;;8.40;61.50;;;;;;5041212;28;20473;-71
2023/10/06 07:07:40;;;;;;;16.60;7.50;;;8.40;60.70;;;;;;5042780;28;20426;-69
2023/10/06 07:10:08;;;;;;;14.30;7.50;;;8.40;57.80;;;;;;5039097;28;20415;-69
2023/10/06 07:12:34;;;;;;;11.53;8.07;;;8.40;58.80;;;;;;5042085;28;20510;-67
2023/10/06 07:15:01;;;;;;;13.67;8.43;;;8.50;58.20;;;;;;5062808;28;20465;-69
2023/10/06 07:17:27;;;;;;;10.13;6.40;;;8.60;57.80;;;;;;5064161;28;20443;-69
2023/10/06 07:19:52;;;;;;;13.00;6.23;;;8.70;56.80;;;;;;5062590;28;20419;-69
2023/10/06 07:22:18;;;;;;;11.10;6.90;;;8.70;52.90;;;;;;5056115;28;20919;-71
2023/10/06 07:24:44;;;;;;;15.03;7.00;;;8.70;54.50;;;;;;5053530;28;20172;-69
2023/10/06 07:27:09;;;;;;;10.93;7.07;;;8.70;55.00;;;;;;5053885;28;20260;-69
2023/10/06 07:29:35;;;;;;;7.83;6.73;;;8.90;55.70;;;;;;5053243;28;20501;-69
2023/10/06 07:32:01;;;;;;;10.63;6.30;;;9.00;52.90;;;;;;5053724;28;20220;-69
2023/10/06 07:34:27;;;;;;;9.77;6.20;;;9.00;52.10;;;;;;5053418;28;20598;-69
2023/10/06 07:36:53;;;;;;;10.43;6.20;;;9.20;51.60;;;;;;5053026;28;20440;-68
2023/10/06 07:39:20;;;;;;;8.63;6.77;;;9.20;51.70;;;;;;5053520;28;20772;-68
2023/10/06 07:41:46;;;;;;;10.63;6.00;;;9.30;49.90;;;;;;5053760;28;20174;-68
2023/10/06 07:44:12;;;;;;;12.10;7.93;;;9.40;49.40;;;;;;5053466;28;20436;-68
2023/10/06 07:46:38;;;;;;;13.67;8.17;;;9.50;47.40;;;;;;5051958;28;20456;-69
2023/10/06 07:49:04;;;;;;;15.40;6.73;;;9.50;45.80;;;;;;5054022;28;20416;-69
2023/10/06 07:51:33;;;;;;;12.70;7.50;;;9.60;44.60;;;;;;5054215;28;20727;-70
2023/10/06 07:53:59;;;;;;;10.80;8.07;;;9.70;45.30;;;;;;5054062;28;20422;-69
2023/10/06 07:56:26;;;;;;;10.13;7.30;;;9.80;42.10;;;;;;5035190;28;20448;-68
2023/10/06 07:58:53;;;;;;;11.30;7.00;;;10.00;41.30;;;;;;5053921;28;20896;-68
2023/10/06 08:01:19;;;;;;;14.50;7.73;;;10.40;35.80;;;;;;5053425;28;20483;-69
2023/10/06 08:03:45;;;;;;;12.27;7.17;;;10.50;35.00;;;;;;5053201;28;20409;-68
2023/10/06 08:06:11;;;;;;;11.30;6.33;;;10.70;35.30;;;;;;5053011;28;20492;-69
2023/10/06 08:08:38;;;;;;;10.27;6.97;;;11.00;32.00;;;;;;5053091;28;20486;-68
2023/10/06 08:11:07;;;;;;;10.43;7.87;;;11.10;29.70;;;;;;5053095;28;20773;-68
2023/10/06 08:13:37;;;;;;;12.17;8.60;;;10.90;30.50;;;;;;5053000;28;20464;-68
2023/10/06 08:16:06;;;;;;;8.83;6.10;;;11.40;32.00;;;;;;5090763;22;20494;-68
2023/10/06 08:18:32;;;;;;;8.80;6.23;;;11.60;27.90;;;;;;5044119;28;20786;-68
2023/10/06 08:21:01;;;;;;;17.27;6.60;;;11.60;28.50;;;;;;5043244;28;20406;-68
2023/10/06 08:23:31;;;;;;;9.50;7.10;;;11.50;28.90;;;;;;5038434;28;20548;-67
2023/10/06 08:25:57;;;;;;;7.83;6.97;;;11.40;29.40;;;;;;5042361;28;20441;-68
2023/10/06 08:28:26;;;;;;;10.40;6.00;;;11.40;29.80;;;;;;5057960;28;20509;-67
2023/10/06 08:30:52;;;;;;;8.80;5.73;;;11.40;30.40;;;;;;5042457;28;20402;-68
2023/10/06 08:33:17;;;;;;;13.10;7.50;;;11.40;31.10;;;;;;5043146;28;20466;-68
2023/10/06 08:35:44;;;;;;;9.93;7.00;;;11.50;31.00;;;;;;5042925;28;20453;-68
2023/10/06 08:38:09;;;;;;;8.50;7.07;;;11.50;32.30;;;;;;5042479;28;20174;-67
2023/10/06 08:40:42;;;;;;;11.53;6.30;;;11.60;31.20;;;;;;5043237;28;20416;-71
2023/10/06 08:43:07;;;;;;;11.27;6.27;;;11.70;30.30;;;;;;5045092;28;20179;-67
2023/10/06 08:45:40;;;;;;;7.90;6.30;;;11.80;30.00;;;;;;5046684;28;20429;-68
2023/10/06 08:48:10;;;;;;;9.30;6.70;;;11.90;29.80;;;;;;5046006;28;20432;-66
2023/10/06 08:50:37;;;;;;;10.93;7.43;;;12.10;29.30;;;;;;5040993;28;20416;-67
2023/10/06 08:53:09;;;;;;;12.10;6.30;;;12.20;28.80;;;;;;5041779;28;20511;-67
2023/10/06 08:55:37;;;;;;;16.53;7.47;;;12.20;28.50;;;;;;5041855;28;20426;-68
2023/10/06 08:58:04;;;;;;;11.00;6.70;;;12.40;27.30;;;;;;5041901;28;20438;-68
2023/10/06 09:00:32;;;;;;;12.30;7.07;;;12.50;27.40;;;;;;5057157;28;20764;-67
2023/10/06 09:03:07;;;;;;;10.90;6.40;;;12.60;26.80;;;;;;5043633;28;20952;-67
2023/10/06 09:05:38;;;;;;;8.53;6.53;;;12.80;25.20;;;;;;5041390;28;20442;-68
2023/10/06 09:08:09;;;;;;;11.73;6.80;;;12.90;24.60;;;;;;5040783;28;20440;-67
2023/10/06 09:10:40;;;;;;;12.73;7.20;;;13.10;24.70;;;;;;5041422;28;20418;-68
2023/10/06 09:13:11;;;;;;;13.67;8.10;;;13.20;23.60;;;;;;5042282;28;20464;-68
2023/10/06 09:15:39;;;;;;;6.90;5.33;;;13.30;23.30;;;;;;5040800;28;20543;-68
2023/10/06 09:18:19;;;;;;;9.77;6.60;;;13.50;23.10;;;;;;5056999;28;20430;-67
2023/10/06 09:20:47;;;;;;;11.70;6.90;;;13.60;21.30;;;;;;5041214;28;20416;-68
2023/10/06 09:23:31;;;;;;;8.80;6.00;;;13.70;20.80;;;;;;5056985;28;20782;-67
2023/10/06 09:26:01;;;;;;;11.97;7.03;;;13.80;21.40;;;;;;5041080;28;20433;-68
2023/10/06 09:28:27;;;;;;;15.00;7.67;;;13.90;21.30;;;;;;5041527;28;20409;-67
2023/10/06 09:31:00;;;;;;;9.07;7.67;;;14.10;19.80;;;;;;5041876;28;20415;-68
2023/10/06 09:33:42;;;;;;;13.50;7.17;;;14.30;20.50;;;;;;5042587;28;20472;-67
2023/10/06 09:36:11;;;;;;;14.17;9.27;;;14.50;18.20;;;;;;5042169;28;20428;-67
2023/10/06 09:38:38;;;;;;;11.03;6.40;;;14.60;17.20;;;;;;5041773;28;20417;-66
2023/10/06 09:41:09;;;;;;;12.60;8.43;;;14.70;17.30;;;;;;5041430;28;20411;-67
2023/10/06 09:43:38;;;;;;;7.80;6.60;;;15.00;17.40;;;;;;5042045;28;20492;-67
2023/10/06 09:46:15;;;;;;;15.20;9.03;;;15.20;17.60;;;;;;5043634;28;20434;-68
2023/10/06 09:48:45;;;;;;;11.80;7.57;;;15.40;15.00;;;;;;5042181;28;20425;-67
2023/10/06 09:51:12;;;;;;;8.40;7.30;;;15.50;14.60;;;;;;5056863;28;20479;-66
2023/10/06 09:53:43;;;;;;;14.03;7.40;;;15.70;13.60;;;;;;5041386;28;20821;-68
2023/10/06 09:56:11;;;;;;;12.10;7.83;;;15.80;13.60;;;;;;5057518;28;20449;-68
2023/10/06 09:58:38;;;;;;;10.70;7.67;;;16.00;12.30;;;;;;5042526;28;20717;-68
2023/10/06 10:01:05;;;;;;;11.20;7.00;;;16.20;13.30;;;;;;5042460;28;20485;-68
2023/10/06 10:03:34;;;;;;;10.47;6.07;;;16.40;12.00;;;;;;5043076;28;20501;-67
2023/10/06 10:06:04;;;;;;;9.70;7.70;;;16.60;12.50;;;;;;5042877;28;20441;-67
2023/10/06 10:08:32;;;;;;;13.03;6.03;;;16.80;9.90;;;;;;5045002;28;20410;-68
2023/10/06 10:11:01;;;;;;;7.03;5.40;;;17.00;10.00;;;;;;5045540;28;20519;-67
2023/10/06 10:13:49;;;;;;;9.40;7.57;;;17.20;10.10;;;;;;5044812;28;20465;-67
2023/10/06 10:16:26;;;;;;;9.33;7.73;;;17.30;8.10;;;;;;5044283;28;20976;-68
2023/10/06 10:19:00;;;;;;;7.60;6.50;;;17.40;8.10;;;;;;5044239;28;20398;-68
2023/10/06 10:21:26;;;;;;;7.23;6.00;;;17.50;7.90;;;;;;5048272;28;20418;-68
2023/10/06 10:23:54;;;;;;;9.50;7.40;;;17.70;7.50;;;;;;5047954;28;20424;-68
2023/10/06 10:26:27;;;;;;;10.20;6.90;;;17.80;7.40;;;;;;5047292;28;20437;-70
2023/10/06 10:29:17;;;;;;;11.83;6.80;;;17.90;6.20;;;;;;5046880;28;20416;-67
2023/10/06 10:31:44;;;;;;;12.07;5.50;;;17.90;6.20;;;;;;5062582;28;20489;-67
2023/10/06 10:34:23;;;;;;;17.13;7.10;;;18.00;6.40;;;;;;5045956;28;20410;-70
2023/10/06 10:37:05;;;;;;;11.53;6.50;;;18.00;5.00;;;;;;5045726;28;20442;-67
2023/10/06 10:40:00;;;;;;;11.07;6.87;;;18.20;4.60;;;;;;5046544;28;20410;-68
2023/10/06 10:42:50;;;;;;;10.73;6.87;;;18.40;4.90;;;;;;5029603;28;20457;-68
2023/10/06 10:45:44;;;;;;;7.00;6.10;;;18.40;3.30;;;;;;5046612;28;20509;-68
2023/10/06 10:48:13;;;;;;;9.87;6.27;;;18.50;3.30;;;;;;5046132;28;20437;-68
2023/10/06 10:51:05;;;;;;;8.90;6.23;;;18.70;2.50;;;;;;5045940;28;20440;-69
2023/10/06 10:53:34;;;;;;;8.17;6.40;;;18.80;3.80;;;;;;5045393;28;20518;-69
2023/10/06 10:56:01;;;;;;;8.70;5.73;;;19.00;2.40;;;;;;5045976;28;20504;-70
2023/10/06 10:58:42;;;;;;;9.80;6.10;;;19.10;2.30;;;;;;5046114;28;20410;-69
2023/10/06 11:01:31;;;;;;;10.67;6.23;;;19.10;2.30;;;;;;5045762;28;20440;-68
2023/10/06 11:06:55;;;;;;;7.87;5.63;;;19.60;1.40;;;;;;5030207;28;20450;-66
2023/10/06 11:09:26;;;;;;;7.17;5.80;;;19.60;1.50;;;;;;5061136;28;20493;-69
2023/10/06 11:12:05;;;;;;;17.00;6.57;;;19.80;1.00;;;;;;5044791;28;20410;-69
2023/10/06 11:14:37;;;;;;;11.63;6.77;;;20.10;1.00;;;;;;5039269;28;20455;-69
2023/10/06 11:17:03;;;;;;;7.20;5.03;;;20.10;1.00;;;;;;5042331;28;20457;-68
2023/10/06 11:19:33;;;;;;;7.67;5.23;;;20.10;1.00;;;;;;5039760;28;20432;-67
2023/10/06 11:22:19;;;;;;;6.80;6.10;;;20.10;1.00;;;;;;5041992;28;20183;-66
2023/10/06 11:24:46;;;;;;;7.37;6.20;;;20.20;1.00;;;;;;5040227;28;20406;-67
2023/10/06 11:27:12;;;;;;;6.80;5.33;;;20.30;1.00;;;;;;5050200;28;20818;-68
2023/10/06 11:29:37;;;;;;;8.20;5.17;;;20.50;1.00;;;;;;5034606;28;20410;-68
2023/10/06 11:32:04;;;;;;;5.53;4.97;;;20.70;1.00;;;;;;5032235;28;20705;-67
2023/10/06 11:34:29;;;;;;;5.40;4.90;;;21.00;1.00;;;;;;5034097;28;20693;-67
2023/10/06 11:36:59;;;;;;;6.57;5.87;;;21.20;1.00;;;;;;5034276;28;20429;-67
2023/10/06 11:39:32;;;;;;;9.10;6.07;;;21.30;1.00;;;;;;5034409;28;20179;-67
2023/10/06 11:42:26;;;;;;;8.90;6.20;;;21.50;1.00;;;;;;5033080;28;20410;-67
2023/10/06 11:44:52;;;;;;;6.93;5.33;;;21.40;1.00;;;;;;5034013;28;20725;-67
2023/10/06 11:47:27;;;;;;;7.37;5.50;;;21.10;1.00;;;;;;5049418;28;20980;-67
2023/10/06 11:49:57;;;;;;;7.30;5.50;;;21.20;1.00;;;;;;5034192;28;20417;-67
2023/10/06 11:52:24;;;;;;;6.23;5.30;;;21.30;1.00;;;;;;5034401;28;20497;-67
2023/10/06 11:54:51;;;;;;;5.97;5.47;;;21.40;1.00;;;;;;5033912;28;20921;-67
2023/10/06 11:57:39;;;;;;;6.83;5.10;;;21.50;1.00;;;;;;5034088;28;20433;-67
2023/10/06 12:00:10;;;;;;;7.17;5.87;;;21.60;1.00;;;;;;5033575;28;20449;-67
2023/10/06 12:02:51;;;;;;;8.80;6.30;;;21.80;1.00;;;;;;5033840;28;20418;-67
2023/10/06 12:05:24;;;;;;;6.53;5.73;;;21.90;1.00;;;;;;5033619;28;20445;-67
2023/10/06 12:07:50;;;;;;;5.70;5.13;;;21.80;1.00;;;;;;5033650;28;20420;-67
2023/10/06 12:10:20;;;;;;;6.57;5.97;;;21.90;1.00;;;;;;5033608;28;20450;-67
2023/10/06 12:12:47;;;;;;;6.20;5.70;;;22.10;1.00;;;;;;5033410;28;20490;-67
2023/10/06 12:15:16;;;;;;;7.40;6.10;;;22.00;1.00;;;;;;5048308;28;20508;-67
2023/10/06 12:17:43;;;;;;;5.90;5.10;;;21.90;1.00;;;;;;5033579;28;20402;-68
2023/10/06 12:20:13;;;;;;;6.37;5.73;;;21.90;1.00;;;;;;5034244;28;20409;-69
2023/10/06 12:22:43;;;;;;;7.37;6.53;;;22.10;1.00;;;;;;5034659;28;20410;-70
2023/10/06 12:25:14;;;;;;;7.33;6.30;;;22.20;1.00;;;;;;5035529;28;20421;-69
2023/10/06 12:27:43;;;;;;;7.77;5.80;;;22.30;1.00;;;;;;5053072;28;20422;-68
2023/10/06 12:30:12;;;;;;;6.23;5.63;;;22.20;1.00;;;;;;5039197;28;20917;-69
2023/10/06 12:32:38;;;;;;;8.67;6.60;;;22.40;1.00;;;;;;5036893;28;20600;-68
2023/10/06 12:35:05;;;;;;;7.53;6.37;;;22.30;1.00;;;;;;5032915;28;20441;-68
2023/10/06 12:37:32;;;;;;;8.43;6.30;;;22.20;1.00;;;;;;5032971;28;20199;-69
2023/10/06 12:39:58;;;;;;;7.20;6.33;;;22.20;1.00;;;;;;5032941;28;20429;-69
2023/10/06 12:42:23;;;;;;;6.03;5.50;;;22.20;1.00;;;;;;5031830;28;20823;-69
2023/10/06 12:44:49;;;;;;;6.40;5.80;;;22.40;1.00;;;;;;5033147;28;20201;-69
2023/10/06 12:47:14;;;;;;;6.97;6.00;;;22.60;1.00;;;;;;5033381;28;20199;-69
2023/10/06 12:49:45;;;;;;;7.00;6.30;;;22.60;1.00;;;;;;5032728;28;20229;-68
2023/10/06 12:52:11;;;;;;;13.83;7.00;;;22.50;1.00;;;;;;5032939;28;20206;-69
2023/10/06 12:54:37;;;;;;;6.87;5.73;;;22.50;1.00;;;;;;5033451;28;20410;-69
2023/10/06 12:57:03;;;;;;;7.77;6.97;;;22.50;1.00;;;;;;5032705;28;20191;-68
2023/10/06 12:59:29;;;;;;;7.20;6.50;;;22.70;1.00;;;;;;5032748;28;20179;-68
2023/10/06 13:01:57;;;;;;;7.63;6.80;;;22.90;1.00;;;;;;5032815;28;20418;-68
2023/10/06 13:04:23;;;;;;;7.70;6.33;;;22.90;1.00;;;;;;5032591;28;20421;-69
2023/10/06 13:06:49;;;;;;;7.10;6.37;;;22.80;1.00;;;;;;5032503;28;20444;-68
2023/10/06 13:09:20;;;;;;;7.53;6.60;;;22.70;1.00;;;;;;5032879;28;20924;-68
2023/10/06 13:11:46;;;;;;;10.03;7.10;;;22.80;1.00;;;;;;5032902;28;20175;-69